マニラ/ニノイ・アキノ の空港の天気 - METARとTAF

ニノイ・アキノ国際空港 ( RPLL / MNL ) - フィリピン マニラ
飛行場実況気象(Metar)
観測時間01/18 17:00 PHT (01/18 09:00 UTC)
風向・風速東北東 4m/s
視程10km以上
天気現象
全天の4割程度の雲 雲底高度 700m
気温31℃
湿度62%
気圧1009hPa
METARRPLL 180900Z 06007KT 010V080 9999 SCT023 31/23 Q1009 NOSIG RMK A2980
過去の天気等 Google飛行場航空写真 Wunderground天気予報

過去48時間のMETAR

飛行場予報(TAF)
発表時間: 1/18 13:00 PHT (1/18 05:00 UTC)
予報対象時間: 18日14時 PHT ~ 19日20時 PHT
風向・風速東北東 3m/s
視程10km以上
少しの雲 雲底高度 700m
全天の8割程度の雲 雲底高度 3,050m
18日14時 PHT ~ 18日20時 PHT に一時的に
風向・風速北東 5m/s
視程9,000m
天気現象弱いしゅう雨
全天の4割程度の雲 雲底高度 700m
全天を覆う雲 雲底高度 2,740m
18日20時 PHT ~ 19日2時 PHT に一時的に
風向・風速東 3m/s
全天の4割程度の雲 雲底高度 700m
全天の8割程度の雲 雲底高度 3,050m
TAF RPLL 180500Z 1806/1912 06006KT 9999 FEW023 BKN100 TX30/1806Z TN25/1822Z
TEMPO 1806/1812 05010KT 9000 -SHRA SCT023 OVC090
TEMPO 1812/1818 08006KT SCT023 BKN100